Terminal Aerodrome Forecast
Issued by NWS

Home | Current Version | Previous Version | Graphics & Text | Print | Product List | Glossary On
Versions: 1 2 3 4 5 6 7 8 9 10 11 12 13 14
000
FTUS43 KOAX 151139
TAFCDR
TAF
KCDR 151139Z 1512/1612 25008KT P6SM SCT200
     FM151800 27015G25KT P6SM BKN200
     FM160000 26008KT P6SM BKN200
     FM160600 28005KT P6SM OVC150=

USA.gov is the U.S. government's official web portal to all federal, state and local government web resources and services.